AZU238 SBSP-SBRJ
Flight info
| Callsign | AZU238 |
|---|---|
| Flight time | 0h 33m |
| Altitude | 25000 |
| Route | NIBRU UZ171 KEVUN |
| Aircraft | A320/M-SDE3FGHIRWY/LB1 |
Departure
| Time | 2026-05-07 22:03 |
|---|---|
| Airport | Congonhas–Deputado Freitas Nobre Airport (SBSP) |
Arrival
| Time | 2026-05-07 22:37 |
|---|---|
| Airport | Santos Dumont Airport (SBRJ) |
| Time | Latitude | Longitude | Altitude | Speed | Heading |
|---|---|---|---|---|---|
| 2026-05-07 21:45 | -23.62481 | -46.65987 | 2600 ft | 0 kts | 237° |
| 2026-05-07 21:51 | -23.62477 | -46.65980 | 2600 ft | 4 kts | 234° |
| 2026-05-07 21:51 | -23.62458 | -46.65961 | 2600 ft | 4 kts | 197° |
| 2026-05-07 21:51 | -23.62437 | -46.65962 | 2600 ft | 2 kts | 148° |
| 2026-05-07 21:51 | -23.62436 | -46.65963 | 2600 ft | 0 kts | 147° |
| 2026-05-07 21:58 | -23.62447 | -46.65954 | 2601 ft | 6 kts | 147° |
| 2026-05-07 21:58 | -23.62501 | -46.65914 | 2601 ft | 13 kts | 148° |
| 2026-05-07 21:58 | -23.62598 | -46.65850 | 2601 ft | 20 kts | 149° |
| 2026-05-07 21:58 | -23.62740 | -46.65757 | 2601 ft | 27 kts | 147° |
| 2026-05-07 21:59 | -23.62837 | -46.65652 | 2602 ft | 11 kts | 81° |
| 2026-05-07 21:59 | -23.62867 | -46.65611 | 2603 ft | 6 kts | 146° |
| 2026-05-07 21:59 | -23.62904 | -46.65585 | 2604 ft | 7 kts | 147° |
| 2026-05-07 21:59 | -23.62958 | -46.65546 | 2603 ft | 14 kts | 148° |
| 2026-05-07 22:00 | -23.63089 | -46.65497 | 2602 ft | 24 kts | 144° |
| 2026-05-07 22:00 | -23.63222 | -46.65407 | 2602 ft | 23 kts | 147° |
| 2026-05-07 22:00 | -23.63363 | -46.65309 | 2602 ft | 25 kts | 148° |
| 2026-05-07 22:00 | -23.63490 | -46.65211 | 2601 ft | 16 kts | 119° |
| 2026-05-07 22:01 | -23.63470 | -46.65142 | 2600 ft | 9 kts | 39° |
| 2026-05-07 22:01 | -23.63419 | -46.65131 | 2602 ft | 6 kts | 331° |
| 2026-05-07 22:01 | -23.63416 | -46.65132 | 2602 ft | 0 kts | 331° |
| 2026-05-07 22:02 | -23.63274 | -46.65224 | 2609 ft | 62 kts | 329° |
| 2026-05-07 22:03 | -23.62708 | -46.65617 | 2607 ft | 128 kts | 327° |
| 2026-05-07 22:03 | -23.61859 | -46.66167 | 3094 ft | 142 kts | 332° |
| 2026-05-07 22:03 | -23.61002 | -46.66689 | 3869 ft | 141 kts | 340° |
| 2026-05-07 22:03 | -23.59971 | -46.66711 | 4280 ft | 165 kts | 16° |
| 2026-05-07 22:04 | -23.59015 | -46.65780 | 4606 ft | 200 kts | 61° |
| 2026-05-07 22:04 | -23.58899 | -46.64220 | 5050 ft | 224 kts | 94° |
| 2026-05-07 22:04 | -23.59100 | -46.62446 | 5407 ft | 243 kts | 88° |
| 2026-05-07 22:04 | -23.59113 | -46.60545 | 5780 ft | 267 kts | 84° |
| 2026-05-07 22:05 | -23.59054 | -46.58460 | 6433 ft | 280 kts | 84° |
| 2026-05-07 22:05 | -23.58981 | -46.56299 | 7309 ft | 285 kts | 84° |
| 2026-05-07 22:05 | -23.58917 | -46.54133 | 8240 ft | 289 kts | 84° |
| 2026-05-07 22:05 | -23.58879 | -46.52561 | 8922 ft | 292 kts | 84° |
| 2026-05-07 22:06 | -23.58823 | -46.49639 | 10143 ft | 297 kts | 84° |
| 2026-05-07 22:06 | -23.58798 | -46.48085 | 10439 ft | 312 kts | 85° |
| 2026-05-07 22:06 | -23.58762 | -46.45610 | 10750 ft | 337 kts | 85° |
| 2026-05-07 22:06 | -23.58728 | -46.42952 | 11039 ft | 359 kts | 86° |
| 2026-05-07 22:07 | -23.58699 | -46.40209 | 11534 ft | 371 kts | 86° |
| 2026-05-07 22:07 | -23.58670 | -46.37380 | 12262 ft | 376 kts | 86° |
| 2026-05-07 22:07 | -23.58639 | -46.34515 | 12990 ft | 380 kts | 87° |
| 2026-05-07 22:07 | -23.58606 | -46.31627 | 13705 ft | 383 kts | 87° |
| 2026-05-07 22:08 | -23.58571 | -46.28716 | 14324 ft | 386 kts | 87° |
| 2026-05-07 22:08 | -23.58533 | -46.25770 | 14904 ft | 390 kts | 87° |
| 2026-05-07 22:08 | -23.58494 | -46.22801 | 15467 ft | 394 kts | 87° |
| 2026-05-07 22:08 | -23.58453 | -46.19788 | 16020 ft | 399 kts | 87° |
| 2026-05-07 22:09 | -23.58412 | -46.16744 | 16417 ft | 407 kts | 87° |
| 2026-05-07 22:09 | -23.58372 | -46.13631 | 16852 ft | 411 kts | 87° |
| 2026-05-07 22:09 | -23.58333 | -46.10515 | 16994 ft | 412 kts | 87° |
| 2026-05-07 22:09 | -23.58293 | -46.07440 | 17620 ft | 411 kts | 87° |
| 2026-05-07 22:10 | -23.58248 | -46.04317 | 18351 ft | 411 kts | 87° |
| 2026-05-07 22:10 | -23.58199 | -46.01191 | 18861 ft | 414 kts | 87° |
| 2026-05-07 22:10 | -23.58149 | -45.98041 | 19306 ft | 419 kts | 87° |
| 2026-05-07 22:10 | -23.58099 | -45.94853 | 19732 ft | 424 kts | 88° |
| 2026-05-07 22:11 | -23.58052 | -45.91617 | 20188 ft | 428 kts | 88° |
| 2026-05-07 22:11 | -23.58005 | -45.88352 | 20620 ft | 433 kts | 88° |
| 2026-05-07 22:11 | -23.57957 | -45.85057 | 21051 ft | 438 kts | 88° |
| 2026-05-07 22:11 | -23.57905 | -45.81714 | 21484 ft | 442 kts | 88° |
| 2026-05-07 22:12 | -23.57851 | -45.78406 | 21910 ft | 446 kts | 88° |
| 2026-05-07 22:12 | -23.57796 | -45.75005 | 22359 ft | 450 kts | 89° |
| 2026-05-07 22:12 | -23.57741 | -45.71581 | 22780 ft | 454 kts | 89° |
| 2026-05-07 22:12 | -23.57684 | -45.68116 | 23206 ft | 459 kts | 89° |
| 2026-05-07 22:13 | -23.57625 | -45.64626 | 23579 ft | 463 kts | 89° |
| 2026-05-07 22:13 | -23.57563 | -45.61101 | 23922 ft | 467 kts | 89° |
| 2026-05-07 22:13 | -23.57497 | -45.57544 | 24276 ft | 470 kts | 89° |
| 2026-05-07 22:13 | -23.57430 | -45.53985 | 24656 ft | 471 kts | 89° |
| 2026-05-07 22:14 | -23.57366 | -45.50409 | 24924 ft | 474 kts | 89° |
| 2026-05-07 22:14 | -23.57165 | -45.46782 | 24997 ft | 484 kts | 83° |
| 2026-05-07 22:14 | -23.56531 | -45.43140 | 25016 ft | 494 kts | 77° |
| 2026-05-07 22:14 | -23.55744 | -45.39457 | 25014 ft | 504 kts | 77° |
| 2026-05-07 22:15 | -23.54954 | -45.35758 | 25016 ft | 512 kts | 77° |
| 2026-05-07 22:15 | -23.54147 | -45.31958 | 25013 ft | 517 kts | 77° |
| 2026-05-07 22:15 | -23.53337 | -45.28130 | 25017 ft | 519 kts | 77° |
| 2026-05-07 22:15 | -23.52523 | -45.24296 | 25016 ft | 519 kts | 77° |
| 2026-05-07 22:16 | -23.51711 | -45.20476 | 25013 ft | 519 kts | 77° |
| 2026-05-07 22:16 | -23.50718 | -45.16686 | 25008 ft | 519 kts | 70° |
| 2026-05-07 22:16 | -23.49513 | -45.12989 | 25002 ft | 519 kts | 70° |
| 2026-05-07 22:16 | -23.48286 | -45.09276 | 25001 ft | 519 kts | 70° |
| 2026-05-07 22:17 | -23.47059 | -45.05594 | 25005 ft | 519 kts | 70° |
| 2026-05-07 22:17 | -23.45826 | -45.01903 | 25005 ft | 519 kts | 70° |
| 2026-05-07 22:17 | -23.44593 | -44.98205 | 25015 ft | 519 kts | 70° |
| 2026-05-07 22:17 | -23.43363 | -44.94508 | 25013 ft | 519 kts | 70° |
| 2026-05-07 22:18 | -23.42133 | -44.90811 | 25004 ft | 519 kts | 70° |
| 2026-05-07 22:18 | -23.39695 | -44.83475 | 25003 ft | 519 kts | 70° |
| 2026-05-07 22:18 | -23.38469 | -44.79790 | 25007 ft | 519 kts | 70° |
| 2026-05-07 22:19 | -23.37231 | -44.76082 | 24995 ft | 519 kts | 70° |
| 2026-05-07 22:19 | -23.35997 | -44.72389 | 25004 ft | 519 kts | 70° |
| 2026-05-07 22:19 | -23.34761 | -44.68695 | 24996 ft | 520 kts | 70° |
| 2026-05-07 22:19 | -23.33524 | -44.65005 | 24995 ft | 520 kts | 70° |
| 2026-05-07 22:20 | -23.32287 | -44.61312 | 24988 ft | 520 kts | 70° |
| 2026-05-07 22:20 | -23.31052 | -44.57617 | 24999 ft | 519 kts | 70° |
| 2026-05-07 22:20 | -23.29817 | -44.53925 | 25001 ft | 519 kts | 70° |
| 2026-05-07 22:20 | -23.28581 | -44.50243 | 24992 ft | 519 kts | 70° |
| 2026-05-07 22:21 | -23.27338 | -44.46554 | 24676 ft | 516 kts | 70° |
| 2026-05-07 22:21 | -23.26124 | -44.42954 | 23580 ft | 515 kts | 69° |
| 2026-05-07 22:21 | -23.24887 | -44.39283 | 22786 ft | 504 kts | 69° |
| 2026-05-07 22:21 | -23.23704 | -44.35838 | 22542 ft | 483 kts | 69° |
| 2026-05-07 22:22 | -23.22545 | -44.32456 | 22002 ft | 471 kts | 69° |
| 2026-05-07 22:22 | -23.21419 | -44.29141 | 21150 ft | 466 kts | 69° |
| 2026-05-07 22:22 | -23.20296 | -44.25812 | 19892 ft | 472 kts | 69° |
| 2026-05-07 22:22 | -23.19188 | -44.22520 | 19062 ft | 452 kts | 69° |
| 2026-05-07 22:23 | -23.18131 | -44.19374 | 18392 ft | 439 kts | 69° |
| 2026-05-07 22:23 | -23.17096 | -44.16292 | 17754 ft | 430 kts | 70° |
| 2026-05-07 22:23 | -23.16083 | -44.13278 | 17120 ft | 421 kts | 69° |
| 2026-05-07 22:23 | -23.15083 | -44.10317 | 16500 ft | 415 kts | 68° |
| 2026-05-07 22:24 | -23.14094 | -44.07393 | 15892 ft | 409 kts | 68° |
| 2026-05-07 22:24 | -23.13115 | -44.04507 | 15298 ft | 405 kts | 69° |
| 2026-05-07 22:24 | -23.12146 | -44.01652 | 14721 ft | 411 kts | 68° |
| 2026-05-07 22:24 | -23.11163 | -43.98751 | 14146 ft | 409 kts | 69° |
| 2026-05-07 22:25 | -23.10183 | -43.95857 | 13550 ft | 407 kts | 68° |
| 2026-05-07 22:25 | -23.09206 | -43.92984 | 12912 ft | 404 kts | 68° |
| 2026-05-07 22:25 | -23.08233 | -43.90127 | 12285 ft | 402 kts | 68° |
| 2026-05-07 22:25 | -23.07269 | -43.87296 | 11680 ft | 399 kts | 68° |
| 2026-05-07 22:26 | -23.06307 | -43.84473 | 11087 ft | 397 kts | 68° |
| 2026-05-07 22:26 | -23.05352 | -43.81671 | 10490 ft | 393 kts | 67° |
| 2026-05-07 22:26 | -23.04407 | -43.78901 | 10044 ft | 385 kts | 67° |
| 2026-05-07 22:26 | -23.03503 | -43.76242 | 9872 ft | 366 kts | 67° |
| 2026-05-07 22:27 | -23.02645 | -43.73719 | 9752 ft | 347 kts | 67° |
| 2026-05-07 22:27 | -23.01839 | -43.71351 | 9621 ft | 331 kts | 66° |
| 2026-05-07 22:27 | -23.01048 | -43.69027 | 9492 ft | 317 kts | 67° |
| 2026-05-07 22:27 | -23.00305 | -43.66852 | 9137 ft | 312 kts | 66° |
| 2026-05-07 22:28 | -22.99544 | -43.64641 | 8658 ft | 312 kts | 66° |
| 2026-05-07 22:28 | -22.98789 | -43.62447 | 8220 ft | 309 kts | 66° |
| 2026-05-07 22:28 | -22.98040 | -43.60271 | 7815 ft | 306 kts | 66° |
| 2026-05-07 22:28 | -22.97299 | -43.58120 | 7405 ft | 304 kts | 66° |
| 2026-05-07 22:29 | -22.96564 | -43.55980 | 7006 ft | 301 kts | 66° |
| 2026-05-07 22:29 | -22.95850 | -43.53886 | 6802 ft | 290 kts | 66° |
| 2026-05-07 22:29 | -22.95162 | -43.51863 | 6277 ft | 284 kts | 65° |
| 2026-05-07 22:29 | -22.94449 | -43.49879 | 5981 ft | 279 kts | 63° |
| 2026-05-07 22:30 | -22.93688 | -43.48003 | 5605 ft | 276 kts | 60° |
| 2026-05-07 22:30 | -22.92886 | -43.46141 | 5301 ft | 271 kts | 60° |
| 2026-05-07 22:30 | -22.92080 | -43.44298 | 5013 ft | 269 kts | 60° |
| 2026-05-07 22:30 | -22.91290 | -43.42491 | 4732 ft | 261 kts | 61° |
| 2026-05-07 22:31 | -22.90535 | -43.40741 | 4409 ft | 249 kts | 62° |
| 2026-05-07 22:31 | -22.89826 | -43.39081 | 4123 ft | 235 kts | 61° |
| 2026-05-07 22:31 | -22.89150 | -43.37489 | 3832 ft | 226 kts | 62° |
| 2026-05-07 22:31 | -22.88508 | -43.35975 | 3584 ft | 215 kts | 62° |
| 2026-05-07 22:32 | -22.87960 | -43.34501 | 3330 ft | 207 kts | 67° |
| 2026-05-07 22:32 | -22.87487 | -43.33056 | 3078 ft | 200 kts | 68° |
| 2026-05-07 22:32 | -22.87048 | -43.31685 | 2873 ft | 187 kts | 69° |
| 2026-05-07 22:32 | -22.86631 | -43.30379 | 2637 ft | 181 kts | 69° |
| 2026-05-07 22:33 | -22.86226 | -43.29109 | 2413 ft | 175 kts | 69° |
| 2026-05-07 22:33 | -22.85834 | -43.27877 | 2207 ft | 170 kts | 69° |
| 2026-05-07 22:33 | -22.85506 | -43.26662 | 1999 ft | 168 kts | 82° |
| 2026-05-07 22:33 | -22.85594 | -43.25406 | 1784 ft | 167 kts | 96° |
| 2026-05-07 22:34 | -22.85774 | -43.24168 | 1562 ft | 166 kts | 97° |
| 2026-05-07 22:34 | -22.85950 | -43.22940 | 1339 ft | 164 kts | 97° |
| 2026-05-07 22:34 | -22.86119 | -43.21750 | 1142 ft | 152 kts | 97° |
| 2026-05-07 22:34 | -22.86276 | -43.20674 | 969 ft | 140 kts | 98° |
| 2026-05-07 22:35 | -22.86436 | -43.19655 | 755 ft | 135 kts | 100° |
| 2026-05-07 22:35 | -22.86654 | -43.18679 | 587 ft | 132 kts | 107° |
| 2026-05-07 22:35 | -22.87071 | -43.17799 | 495 ft | 132 kts | 127° |
| 2026-05-07 22:35 | -22.87687 | -43.17043 | 448 ft | 132 kts | 134° |
| 2026-05-07 22:36 | -22.88440 | -43.16496 | 405 ft | 135 kts | 158° |
| 2026-05-07 22:36 | -22.89386 | -43.16384 | 271 ft | 136 kts | 175° |
| 2026-05-07 22:36 | -22.90334 | -43.16333 | 69 ft | 136 kts | 173° |
| 2026-05-07 22:36 | -22.91183 | -43.16266 | 23 ft | 81 kts | 178° |
| 2026-05-07 22:37 | -22.91511 | -43.16241 | 21 ft | 34 kts | 180° |
| 2026-05-07 22:37 | -22.91586 | -43.16308 | 20 ft | 7 kts | 313° |
| 2026-05-07 22:37 | -22.91550 | -43.16351 | 20 ft | 9 kts | 312° |
| 2026-05-07 22:37 | -22.91511 | -43.16395 | 21 ft | 8 kts | 315° |
| 2026-05-07 22:38 | -22.91463 | -43.16447 | 22 ft | 12 kts | 316° |
| 2026-05-07 22:38 | -22.91403 | -43.16497 | 22 ft | 10 kts | 339° |
| 2026-05-07 22:38 | -22.91352 | -43.16532 | 22 ft | 8 kts | 289° |
| 2026-05-07 22:38 | -22.91352 | -43.16572 | 23 ft | 0 kts | 263° |
| 2026-05-07 22:39 | -22.91352 | -43.16575 | 22 ft | 0 kts | 270° |